Owendale, Michigan
Current Conditions -  °F | °C
As of 7:56 PM on Saturday 22 Nov 2014 (Local Time) from KBAX Reporting Station
Haze Haze  
Wind Chill: 36°   Ceiling: 300
Heat Index: 42°   Visibility: 3mi
Dew Point: 42°   Wind: 9mph
Humidity: 100%   Direction: 210°SSW
Pressure: 29.88"   Gusts: NA
Location:  43.73°N, 83.27°W
Report Text: KBAX 230056Z AUTO 21008KT 3SM BR OVC003 05/05 A2988 RMK AO2 T00530053
Loading
Personal Weather Stations






























Interactive Weather Map New forecast layout! Learn more

10-Day Weather Forecast

Advertisements
Track Severe Weather on mobile